sensor_id;sensor_type;location;lat;lon;timestamp;P1;durP1;ratioP1;P2;durP2;ratioP2
36441;SDS011;73131;50.820;16.274;2023-12-14T00:02:30;19.80;;;11.73;;
36441;SDS011;73131;50.820;16.274;2023-12-14T00:05:36;22.02;;;10.88;;
36441;SDS011;73131;50.820;16.274;2023-12-14T00:08:37;16.88;;;9.55;;
36441;SDS011;73131;50.820;16.274;2023-12-14T00:11:40;13.82;;;8.57;;
36441;SDS011;73131;50.820;16.274;2023-12-14T00:14:43;15.23;;;8.18;;
36441;SDS011;73131;50.820;16.274;2023-12-14T00:17:47;18.42;;;9.40;;
36441;SDS011;73131;50.820;16.274;2023-12-14T00:20:48;13.32;;;8.65;;
36441;SDS011;73131;50.820;16.274;2023-12-14T00:23:52;21.65;;;10.13;;
36441;SDS011;73131;50.820;16.274;2023-12-14T00:26:53;21.75;;;11.13;;
36441;SDS011;73131;50.820;16.274;2023-12-14T00:29:54;27.35;;;12.85;;
36441;SDS011;73131;50.820;16.274;2023-12-14T00:32:57;19.38;;;11.68;;
36441;SDS011;73131;50.820;16.274;2023-12-14T00:36:01;24.17;;;11.77;;
36441;SDS011;73131;50.820;16.274;2023-12-14T00:39:04;20.83;;;11.90;;
36441;SDS011;73131;50.820;16.274;2023-12-14T00:42:07;25.75;;;14.15;;
36441;SDS011;73131;50.820;16.274;2023-12-14T00:45:08;19.30;;;11.02;;
36441;SDS011;73131;50.820;16.274;2023-12-14T00:48:14;15.00;;;8.35;;
36441;SDS011;73131;50.820;16.274;2023-12-14T00:51:15;13.00;;;7.88;;
36441;SDS011;73131;50.820;16.274;2023-12-14T00:54:16;14.00;;;7.75;;
36441;SDS011;73131;50.820;16.274;2023-12-14T00:57:17;13.30;;;7.10;;
36441;SDS011;73131;50.820;16.274;2023-12-14T01:00:21;13.88;;;7.75;;
36441;SDS011;73131;50.820;16.274;2023-12-14T01:03:22;13.10;;;8.15;;
36441;SDS011;73131;50.820;16.274;2023-12-14T01:06:23;15.18;;;8.60;;
36441;SDS011;73131;50.820;16.274;2023-12-14T01:09:26;13.98;;;7.47;;
36441;SDS011;73131;50.820;16.274;2023-12-14T01:12:27;13.52;;;8.90;;
36441;SDS011;73131;50.820;16.274;2023-12-14T01:15:28;12.73;;;7.47;;
36441;SDS011;73131;50.820;16.274;2023-12-14T01:18:34;15.45;;;8.77;;
36441;SDS011;73131;50.820;16.274;2023-12-14T01:21:35;16.38;;;8.95;;
36441;SDS011;73131;50.820;16.274;2023-12-14T01:24:39;13.00;;;7.88;;
36441;SDS011;73131;50.820;16.274;2023-12-14T01:27:39;16.48;;;9.18;;
36441;SDS011;73131;50.820;16.274;2023-12-14T01:30:41;17.42;;;9.15;;
36441;SDS011;73131;50.820;16.274;2023-12-14T01:33:44;15.18;;;8.85;;
36441;SDS011;73131;50.820;16.274;2023-12-14T01:36:47;16.02;;;8.70;;
36441;SDS011;73131;50.820;16.274;2023-12-14T01:39:48;18.95;;;9.13;;
36441;SDS011;73131;50.820;16.274;2023-12-14T01:42:49;15.45;;;7.93;;
36441;SDS011;73131;50.820;16.274;2023-12-14T01:45:50;17.92;;;9.38;;
36441;SDS011;73131;50.820;16.274;2023-12-14T01:48:53;17.27;;;8.82;;
36441;SDS011;73131;50.820;16.274;2023-12-14T01:51:54;16.60;;;9.43;;
36441;SDS011;73131;50.820;16.274;2023-12-14T01:54:58;18.33;;;9.48;;
36441;SDS011;73131;50.820;16.274;2023-12-14T01:58:01;15.48;;;9.85;;
36441;SDS011;73131;50.820;16.274;2023-12-14T02:04:03;17.42;;;9.52;;
36441;SDS011;73131;50.820;16.274;2023-12-14T02:07:07;19.05;;;9.77;;
36441;SDS011;73131;50.820;16.274;2023-12-14T02:10:07;19.65;;;10.13;;
36441;SDS011;73131;50.820;16.274;2023-12-14T02:13:13;21.58;;;10.80;;
36441;SDS011;73131;50.820;16.274;2023-12-14T02:16:16;20.13;;;9.52;;
36441;SDS011;73131;50.820;16.274;2023-12-14T02:19:18;21.75;;;10.95;;
36441;SDS011;73131;50.820;16.274;2023-12-14T02:22:21;22.48;;;11.43;;
36441;SDS011;73131;50.820;16.274;2023-12-14T02:25:26;23.40;;;11.02;;
36441;SDS011;73131;50.820;16.274;2023-12-14T02:28:27;21.23;;;10.40;;
36441;SDS011;73131;50.820;16.274;2023-12-14T02:31:28;20.65;;;10.70;;
36441;SDS011;73131;50.820;16.274;2023-12-14T02:34:31;24.95;;;11.75;;
36441;SDS011;73131;50.820;16.274;2023-12-14T02:37:33;25.98;;;10.38;;
36441;SDS011;73131;50.820;16.274;2023-12-14T02:40:37;25.35;;;10.40;;
36441;SDS011;73131;50.820;16.274;2023-12-14T02:43:40;26.08;;;11.52;;
36441;SDS011;73131;50.820;16.274;2023-12-14T02:46:41;27.42;;;12.80;;
36441;SDS011;73131;50.820;16.274;2023-12-14T02:49:44;23.75;;;11.80;;
36441;SDS011;73131;50.820;16.274;2023-12-14T02:52:47;26.13;;;12.48;;
36441;SDS011;73131;50.820;16.274;2023-12-14T02:55:51;27.08;;;12.35;;
36441;SDS011;73131;50.820;16.274;2023-12-14T02:58:54;26.05;;;11.43;;
36441;SDS011;73131;50.820;16.274;2023-12-14T03:01:55;25.77;;;11.77;;
36441;SDS011;73131;50.820;16.274;2023-12-14T03:05:02;27.05;;;11.98;;
36441;SDS011;73131;50.820;16.274;2023-12-14T03:08:06;25.60;;;11.73;;
36441;SDS011;73131;50.820;16.274;2023-12-14T03:11:07;24.42;;;12.20;;
36441;SDS011;73131;50.820;16.274;2023-12-14T03:14:08;25.55;;;12.30;;
36441;SDS011;73131;50.820;16.274;2023-12-14T03:17:11;22.50;;;11.80;;
36441;SDS011;73131;50.820;16.274;2023-12-14T03:20:15;22.42;;;10.95;;
36441;SDS011;73131;50.820;16.274;2023-12-14T03:23:19;20.35;;;11.38;;
36441;SDS011;73131;50.820;16.274;2023-12-14T03:26:20;22.88;;;10.70;;
36441;SDS011;73131;50.820;16.274;2023-12-14T03:29:21;19.20;;;10.38;;
36441;SDS011;73131;50.820;16.274;2023-12-14T03:32:28;16.45;;;8.88;;
36441;SDS011;73131;50.820;16.274;2023-12-14T03:35:31;22.42;;;10.80;;
36441;SDS011;73131;50.820;16.274;2023-12-14T03:38:32;19.83;;;10.27;;
36441;SDS011;73131;50.820;16.274;2023-12-14T03:41:36;18.40;;;10.32;;
36441;SDS011;73131;50.820;16.274;2023-12-14T03:44:40;22.00;;;11.13;;
36441;SDS011;73131;50.820;16.274;2023-12-14T03:47:40;20.38;;;10.65;;
36441;SDS011;73131;50.820;16.274;2023-12-14T03:50:42;20.88;;;11.57;;
36441;SDS011;73131;50.820;16.274;2023-12-14T03:53:42;20.83;;;10.90;;
36441;SDS011;73131;50.820;16.274;2023-12-14T03:56:49;19.98;;;10.40;;
36441;SDS011;73131;50.820;16.274;2023-12-14T03:59:49;17.80;;;10.02;;
36441;SDS011;73131;50.820;16.274;2023-12-14T04:02:53;22.65;;;11.48;;
36441;SDS011;73131;50.820;16.274;2023-12-14T04:05:54;20.00;;;9.98;;
36441;SDS011;73131;50.820;16.274;2023-12-14T04:08:55;22.73;;;10.60;;
36441;SDS011;73131;50.820;16.274;2023-12-14T04:12:01;21.50;;;9.65;;
36441;SDS011;73131;50.820;16.274;2023-12-14T04:15:02;18.77;;;11.23;;
36441;SDS011;73131;50.820;16.274;2023-12-14T04:18:07;23.67;;;11.25;;
36441;SDS011;73131;50.820;16.274;2023-12-14T04:21:13;19.25;;;10.15;;
36441;SDS011;73131;50.820;16.274;2023-12-14T04:24:14;22.80;;;10.18;;
36441;SDS011;73131;50.820;16.274;2023-12-14T04:27:18;22.58;;;9.63;;
36441;SDS011;73131;50.820;16.274;2023-12-14T04:30:24;20.88;;;10.15;;
36441;SDS011;73131;50.820;16.274;2023-12-14T04:33:27;21.40;;;10.50;;
36441;SDS011;73131;50.820;16.274;2023-12-14T04:36:28;20.65;;;10.30;;
36441;SDS011;73131;50.820;16.274;2023-12-14T04:39:34;18.50;;;9.52;;
36441;SDS011;73131;50.820;16.274;2023-12-14T04:42:37;19.38;;;10.05;;
36441;SDS011;73131;50.820;16.274;2023-12-14T04:45:38;22.55;;;10.90;;
36441;SDS011;73131;50.820;16.274;2023-12-14T04:48:39;18.58;;;10.38;;
36441;SDS011;73131;50.820;16.274;2023-12-14T04:51:44;20.55;;;10.75;;
36441;SDS011;73131;50.820;16.274;2023-12-14T04:54:47;18.50;;;9.27;;
36441;SDS011;73131;50.820;16.274;2023-12-14T04:57:48;17.98;;;10.05;;
36441;SDS011;73131;50.820;16.274;2023-12-14T05:00:49;19.15;;;10.00;;
36441;SDS011;73131;50.820;16.274;2023-12-14T05:03:50;19.38;;;10.27;;
36441;SDS011;73131;50.820;16.274;2023-12-14T05:06:53;18.33;;;10.40;;
36441;SDS011;73131;50.820;16.274;2023-12-14T05:09:54;19.63;;;11.57;;
36441;SDS011;73131;50.820;16.274;2023-12-14T05:12:55;24.90;;;11.70;;
36441;SDS011;73131;50.820;16.274;2023-12-14T05:15:56;22.50;;;13.25;;
36441;SDS011;73131;50.820;16.274;2023-12-14T05:19:03;26.10;;;13.00;;
36441;SDS011;73131;50.820;16.274;2023-12-14T05:22:04;27.90;;;13.30;;
36441;SDS011;73131;50.820;16.274;2023-12-14T05:25:07;20.63;;;12.75;;
36441;SDS011;73131;50.820;16.274;2023-12-14T05:28:12;22.50;;;12.35;;
36441;SDS011;73131;50.820;16.274;2023-12-14T05:31:14;23.92;;;12.88;;
36441;SDS011;73131;50.820;16.274;2023-12-14T05:34:16;26.95;;;13.18;;
36441;SDS011;73131;50.820;16.274;2023-12-14T05:37:16;27.85;;;13.85;;
36441;SDS011;73131;50.820;16.274;2023-12-14T05:40:18;29.75;;;13.60;;
36441;SDS011;73131;50.820;16.274;2023-12-14T05:43:18;24.63;;;13.35;;
36441;SDS011;73131;50.820;16.274;2023-12-14T05:46:22;24.17;;;12.90;;
36441;SDS011;73131;50.820;16.274;2023-12-14T05:49:25;23.83;;;12.98;;
36441;SDS011;73131;50.820;16.274;2023-12-14T05:52:29;32.65;;;16.45;;
36441;SDS011;73131;50.820;16.274;2023-12-14T05:55:30;29.58;;;13.85;;
36441;SDS011;73131;50.820;16.274;2023-12-14T05:58:31;34.15;;;14.88;;
36441;SDS011;73131;50.820;16.274;2023-12-14T06:01:32;27.35;;;13.48;;
36441;SDS011;73131;50.820;16.274;2023-12-14T06:04:37;32.97;;;14.65;;
36441;SDS011;73131;50.820;16.274;2023-12-14T06:07:40;29.70;;;14.07;;
36441;SDS011;73131;50.820;16.274;2023-12-14T06:10:41;27.35;;;13.10;;
36441;SDS011;73131;50.820;16.274;2023-12-14T06:13:47;30.25;;;14.05;;
36441;SDS011;73131;50.820;16.274;2023-12-14T06:16:51;28.67;;;13.77;;
36441;SDS011;73131;50.820;16.274;2023-12-14T06:19:52;27.27;;;14.68;;
36441;SDS011;73131;50.820;16.274;2023-12-14T06:22:53;30.02;;;14.15;;
36441;SDS011;73131;50.820;16.274;2023-12-14T06:25:57;30.02;;;13.13;;
36441;SDS011;73131;50.820;16.274;2023-12-14T06:28:59;40.00;;;18.35;;
36441;SDS011;73131;50.820;16.274;2023-12-14T06:32:00;30.20;;;14.75;;
36441;SDS011;73131;50.820;16.274;2023-12-14T06:35:03;29.63;;;15.05;;
36441;SDS011;73131;50.820;16.274;2023-12-14T06:38:05;30.52;;;16.33;;
36441;SDS011;73131;50.820;16.274;2023-12-14T06:41:17;28.50;;;14.25;;
36441;SDS011;73131;50.820;16.274;2023-12-14T06:44:19;33.92;;;13.75;;
36441;SDS011;73131;50.820;16.274;2023-12-14T06:47:20;33.33;;;14.98;;
36441;SDS011;73131;50.820;16.274;2023-12-14T06:50:21;31.63;;;15.00;;
36441;SDS011;73131;50.820;16.274;2023-12-14T06:53:22;32.10;;;14.80;;
36441;SDS011;73131;50.820;16.274;2023-12-14T06:56:23;26.15;;;13.68;;
36441;SDS011;73131;50.820;16.274;2023-12-14T06:59:24;28.38;;;13.25;;
36441;SDS011;73131;50.820;16.274;2023-12-14T07:02:27;23.98;;;12.27;;
36441;SDS011;73131;50.820;16.274;2023-12-14T07:05:29;24.95;;;12.73;;
36441;SDS011;73131;50.820;16.274;2023-12-14T07:08:32;27.58;;;12.32;;
36441;SDS011;73131;50.820;16.274;2023-12-14T07:11:33;26.48;;;11.98;;
36441;SDS011;73131;50.820;16.274;2023-12-14T07:14:37;22.95;;;11.88;;
36441;SDS011;73131;50.820;16.274;2023-12-14T07:17:38;25.48;;;12.30;;
36441;SDS011;73131;50.820;16.274;2023-12-14T07:20:41;24.42;;;12.68;;
36441;SDS011;73131;50.820;16.274;2023-12-14T07:23:42;28.27;;;12.77;;
36441;SDS011;73131;50.820;16.274;2023-12-14T07:26:45;25.52;;;12.50;;
36441;SDS011;73131;50.820;16.274;2023-12-14T07:29:50;23.35;;;12.15;;
36441;SDS011;73131;50.820;16.274;2023-12-14T07:32:51;23.95;;;12.55;;
36441;SDS011;73131;50.820;16.274;2023-12-14T07:35:54;28.77;;;12.00;;
36441;SDS011;73131;50.820;16.274;2023-12-14T07:38:55;25.83;;;12.77;;
36441;SDS011;73131;50.820;16.274;2023-12-14T07:41:56;29.42;;;13.95;;
36441;SDS011;73131;50.820;16.274;2023-12-14T07:44:58;31.92;;;14.07;;
36441;SDS011;73131;50.820;16.274;2023-12-14T07:48:01;24.55;;;11.93;;
36441;SDS011;73131;50.820;16.274;2023-12-14T07:51:07;22.58;;;12.50;;
36441;SDS011;73131;50.820;16.274;2023-12-14T07:54:10;25.45;;;13.00;;
36441;SDS011;73131;50.820;16.274;2023-12-14T07:57:14;25.65;;;11.63;;
36441;SDS011;73131;50.820;16.274;2023-12-14T08:00:15;23.67;;;12.00;;
36441;SDS011;73131;50.820;16.274;2023-12-14T08:03:21;21.77;;;10.85;;
36441;SDS011;73131;50.820;16.274;2023-12-14T08:06:23;22.92;;;11.10;;
36441;SDS011;73131;50.820;16.274;2023-12-14T08:09:26;21.02;;;11.32;;
36441;SDS011;73131;50.820;16.274;2023-12-14T08:12:27;17.58;;;10.70;;
36441;SDS011;73131;50.820;16.274;2023-12-14T08:15:30;23.35;;;11.45;;
36441;SDS011;73131;50.820;16.274;2023-12-14T08:18:34;23.17;;;12.18;;
36441;SDS011;73131;50.820;16.274;2023-12-14T08:21:34;22.38;;;11.68;;
36441;SDS011;73131;50.820;16.274;2023-12-14T08:24:38;24.83;;;12.70;;
36441;SDS011;73131;50.820;16.274;2023-12-14T08:27:39;19.85;;;10.88;;
36441;SDS011;73131;50.820;16.274;2023-12-14T08:30:41;17.67;;;9.98;;
36441;SDS011;73131;50.820;16.274;2023-12-14T08:33:41;19.08;;;10.85;;
36441;SDS011;73131;50.820;16.274;2023-12-14T08:36:45;22.05;;;10.27;;
36441;SDS011;73131;50.820;16.274;2023-12-14T08:39:46;18.27;;;10.57;;
36441;SDS011;73131;50.820;16.274;2023-12-14T08:42:47;20.20;;;10.40;;
36441;SDS011;73131;50.820;16.274;2023-12-14T08:45:48;20.58;;;11.40;;
36441;SDS011;73131;50.820;16.274;2023-12-14T08:48:50;20.95;;;9.75;;
36441;SDS011;73131;50.820;16.274;2023-12-14T08:51:53;20.70;;;10.50;;
36441;SDS011;73131;50.820;16.274;2023-12-14T08:54:54;15.65;;;9.30;;
36441;SDS011;73131;50.820;16.274;2023-12-14T08:57:55;17.35;;;10.15;;
36441;SDS011;73131;50.820;16.274;2023-12-14T09:00:56;22.25;;;11.43;;
36441;SDS011;73131;50.820;16.274;2023-12-14T09:04:00;18.75;;;10.18;;
36441;SDS011;73131;50.820;16.274;2023-12-14T09:07:03;18.50;;;9.48;;
36441;SDS011;73131;50.820;16.274;2023-12-14T09:10:06;19.30;;;10.05;;
36441;SDS011;73131;50.820;16.274;2023-12-14T09:13:10;17.38;;;9.05;;
36441;SDS011;73131;50.820;16.274;2023-12-14T09:16:13;17.75;;;9.82;;
36441;SDS011;73131;50.820;16.274;2023-12-14T09:19:14;18.00;;;10.27;;
36441;SDS011;73131;50.820;16.274;2023-12-14T09:22:21;14.75;;;8.52;;
36441;SDS011;73131;50.820;16.274;2023-12-14T09:25:24;13.63;;;6.50;;
36441;SDS011;73131;50.820;16.274;2023-12-14T09:28:27;20.67;;;10.25;;
36441;SDS011;73131;50.820;16.274;2023-12-14T09:31:28;14.45;;;7.85;;
36441;SDS011;73131;50.820;16.274;2023-12-14T09:34:29;19.50;;;11.35;;
36441;SDS011;73131;50.820;16.274;2023-12-14T09:37:30;15.23;;;7.97;;
36441;SDS011;73131;50.820;16.274;2023-12-14T09:40:31;12.00;;;7.18;;
36441;SDS011;73131;50.820;16.274;2023-12-14T09:43:33;12.13;;;7.20;;
36441;SDS011;73131;50.820;16.274;2023-12-14T09:46:39;12.63;;;8.10;;
36441;SDS011;73131;50.820;16.274;2023-12-14T09:49:45;14.68;;;8.05;;
36441;SDS011;73131;50.820;16.274;2023-12-14T09:52:49;12.80;;;7.20;;
36441;SDS011;73131;50.820;16.274;2023-12-14T09:55:53;12.80;;;7.07;;
36441;SDS011;73131;50.820;16.274;2023-12-14T09:58:56;12.18;;;7.57;;
36441;SDS011;73131;50.820;16.274;2023-12-14T10:02:11;14.30;;;8.48;;
36441;SDS011;73131;50.820;16.274;2023-12-14T10:05:16;16.83;;;7.95;;
36441;SDS011;73131;50.820;16.274;2023-12-14T10:08:17;17.85;;;8.23;;
36441;SDS011;73131;50.820;16.274;2023-12-14T10:11:18;15.60;;;7.82;;
36441;SDS011;73131;50.820;16.274;2023-12-14T10:14:20;19.02;;;9.93;;
36441;SDS011;73131;50.820;16.274;2023-12-14T10:17:22;17.52;;;7.70;;
36441;SDS011;73131;50.820;16.274;2023-12-14T10:20:32;16.75;;;7.72;;
36441;SDS011;73131;50.820;16.274;2023-12-14T10:23:33;18.17;;;8.50;;
36441;SDS011;73131;50.820;16.274;2023-12-14T10:26:38;15.70;;;8.60;;
36441;SDS011;73131;50.820;16.274;2023-12-14T10:29:39;14.85;;;8.00;;
36441;SDS011;73131;50.820;16.274;2023-12-14T10:32:41;16.38;;;7.75;;
36441;SDS011;73131;50.820;16.274;2023-12-14T10:35:42;16.70;;;7.85;;
36441;SDS011;73131;50.820;16.274;2023-12-14T10:38:48;14.40;;;7.18;;
36441;SDS011;73131;50.820;16.274;2023-12-14T10:41:55;14.95;;;7.00;;
36441;SDS011;73131;50.820;16.274;2023-12-14T10:44:58;13.20;;;7.35;;
36441;SDS011;73131;50.820;16.274;2023-12-14T10:48:02;15.10;;;6.80;;
36441;SDS011;73131;50.820;16.274;2023-12-14T10:51:06;11.10;;;6.78;;
36441;SDS011;73131;50.820;16.274;2023-12-14T10:54:08;13.68;;;5.90;;
36441;SDS011;73131;50.820;16.274;2023-12-14T10:57:12;11.40;;;6.57;;
36441;SDS011;73131;50.820;16.274;2023-12-14T11:00:13;16.55;;;7.90;;
36441;SDS011;73131;50.820;16.274;2023-12-14T11:03:19;15.38;;;7.25;;
36441;SDS011;73131;50.820;16.274;2023-12-14T11:09:32;17.60;;;8.25;;
36441;SDS011;73131;50.820;16.274;2023-12-14T11:12:36;20.55;;;8.75;;
36441;SDS011;73131;50.820;16.274;2023-12-14T11:15:37;15.85;;;7.97;;
36441;SDS011;73131;50.820;16.274;2023-12-14T11:18:39;21.02;;;9.52;;
36441;SDS011;73131;50.820;16.274;2023-12-14T11:21:43;24.77;;;10.25;;
36441;SDS011;73131;50.820;16.274;2023-12-14T11:24:50;19.08;;;9.15;;
36441;SDS011;73131;50.820;16.274;2023-12-14T11:27:56;16.17;;;8.15;;
36441;SDS011;73131;50.820;16.274;2023-12-14T11:31:04;20.45;;;10.10;;
36441;SDS011;73131;50.820;16.274;2023-12-14T11:34:07;22.63;;;10.23;;
36441;SDS011;73131;50.820;16.274;2023-12-14T11:37:10;19.73;;;9.10;;
36441;SDS011;73131;50.820;16.274;2023-12-14T11:40:11;16.77;;;8.02;;
36441;SDS011;73131;50.820;16.274;2023-12-14T11:43:16;16.55;;;7.53;;
36441;SDS011;73131;50.820;16.274;2023-12-14T11:46:23;14.00;;;7.72;;
36441;SDS011;73131;50.820;16.274;2023-12-14T11:49:24;12.90;;;7.32;;
36441;SDS011;73131;50.820;16.274;2023-12-14T11:52:29;16.75;;;7.63;;
36441;SDS011;73131;50.820;16.274;2023-12-14T11:55:31;13.05;;;6.95;;
36441;SDS011;73131;50.820;16.274;2023-12-14T11:58:34;12.63;;;6.32;;
36441;SDS011;73131;50.820;16.274;2023-12-14T12:01:35;12.57;;;6.30;;
36441;SDS011;73131;50.820;16.274;2023-12-14T12:04:39;17.15;;;7.00;;
36441;SDS011;73131;50.820;16.274;2023-12-14T12:07:56;19.02;;;10.30;;
36441;SDS011;73131;50.820;16.274;2023-12-14T12:10:58;15.45;;;6.00;;
36441;SDS011;73131;50.820;16.274;2023-12-14T12:14:01;11.20;;;6.35;;
36441;SDS011;73131;50.820;16.274;2023-12-14T12:17:03;12.40;;;6.53;;
36441;SDS011;73131;50.820;16.274;2023-12-14T12:20:07;11.68;;;5.45;;
36441;SDS011;73131;50.820;16.274;2023-12-14T12:23:11;11.55;;;5.88;;
36441;SDS011;73131;50.820;16.274;2023-12-14T12:26:12;11.82;;;6.25;;
36441;SDS011;73131;50.820;16.274;2023-12-14T12:29:18;12.05;;;5.30;;
36441;SDS011;73131;50.820;16.274;2023-12-14T12:32:19;11.82;;;6.05;;
36441;SDS011;73131;50.820;16.274;2023-12-14T12:35:23;10.43;;;6.18;;
36441;SDS011;73131;50.820;16.274;2023-12-14T12:38:25;13.25;;;5.88;;
36441;SDS011;73131;50.820;16.274;2023-12-14T12:41:28;10.82;;;5.55;;
36441;SDS011;73131;50.820;16.274;2023-12-14T12:44:31;12.15;;;5.03;;
36441;SDS011;73131;50.820;16.274;2023-12-14T12:47:33;13.52;;;6.85;;
36441;SDS011;73131;50.820;16.274;2023-12-14T12:50:34;10.73;;;5.88;;
36441;SDS011;73131;50.820;16.274;2023-12-14T12:53:35;12.43;;;5.63;;
36441;SDS011;73131;50.820;16.274;2023-12-14T12:56:37;10.68;;;6.03;;
36441;SDS011;73131;50.820;16.274;2023-12-14T12:59:43;10.82;;;5.45;;
36441;SDS011;73131;50.820;16.274;2023-12-14T13:02:45;10.18;;;5.30;;
36441;SDS011;73131;50.820;16.274;2023-12-14T13:05:47;11.85;;;5.47;;
36441;SDS011;73131;50.820;16.274;2023-12-14T13:08:48;12.15;;;5.50;;
36441;SDS011;73131;50.820;16.274;2023-12-14T13:11:51;11.27;;;5.47;;
36441;SDS011;73131;50.820;16.274;2023-12-14T13:14:52;11.25;;;6.75;;
36441;SDS011;73131;50.820;16.274;2023-12-14T13:17:54;8.63;;;4.75;;
36441;SDS011;73131;50.820;16.274;2023-12-14T13:20:58;12.50;;;5.50;;
36441;SDS011;73131;50.820;16.274;2023-12-14T13:24:00;10.68;;;5.07;;
36441;SDS011;73131;50.820;16.274;2023-12-14T13:27:01;7.88;;;4.25;;
36441;SDS011;73131;50.820;16.274;2023-12-14T13:30:05;9.05;;;5.30;;
36441;SDS011;73131;50.820;16.274;2023-12-14T13:33:08;8.30;;;3.97;;
36441;SDS011;73131;50.820;16.274;2023-12-14T13:36:12;6.63;;;3.15;;
36441;SDS011;73131;50.820;16.274;2023-12-14T13:39:16;6.20;;;3.58;;
36441;SDS011;73131;50.820;16.274;2023-12-14T13:42:20;8.80;;;4.05;;
36441;SDS011;73131;50.820;16.274;2023-12-14T13:45:29;8.20;;;3.90;;
36441;SDS011;73131;50.820;16.274;2023-12-14T13:51:33;6.35;;;3.53;;
36441;SDS011;73131;50.820;16.274;2023-12-14T13:54:37;9.20;;;5.55;;
36441;SDS011;73131;50.820;16.274;2023-12-14T13:57:37;6.40;;;3.80;;
36441;SDS011;73131;50.820;16.274;2023-12-14T14:00:41;6.22;;;3.40;;
36441;SDS011;73131;50.820;16.274;2023-12-14T14:03:46;7.00;;;3.45;;
36441;SDS011;73131;50.820;16.274;2023-12-14T14:06:47;6.15;;;3.67;;
36441;SDS011;73131;50.820;16.274;2023-12-14T14:09:48;9.95;;;4.80;;
36441;SDS011;73131;50.820;16.274;2023-12-14T14:12:49;8.68;;;4.68;;
36441;SDS011;73131;50.820;16.274;2023-12-14T14:15:51;8.48;;;4.75;;
36441;SDS011;73131;50.820;16.274;2023-12-14T14:18:55;8.80;;;5.28;;
36441;SDS011;73131;50.820;16.274;2023-12-14T14:21:59;9.38;;;4.90;;
36441;SDS011;73131;50.820;16.274;2023-12-14T14:25:00;9.70;;;4.47;;
36441;SDS011;73131;50.820;16.274;2023-12-14T14:28:03;12.07;;;5.70;;
36441;SDS011;73131;50.820;16.274;2023-12-14T14:31:04;8.15;;;5.13;;
36441;SDS011;73131;50.820;16.274;2023-12-14T14:34:08;10.73;;;5.03;;
36441;SDS011;73131;50.820;16.274;2023-12-14T14:37:09;11.27;;;5.60;;
36441;SDS011;73131;50.820;16.274;2023-12-14T14:40:13;12.35;;;5.38;;
36441;SDS011;73131;50.820;16.274;2023-12-14T14:43:17;10.27;;;5.32;;
36441;SDS011;73131;50.820;16.274;2023-12-14T14:46:18;9.23;;;4.95;;
36441;SDS011;73131;50.820;16.274;2023-12-14T14:49:19;9.93;;;4.80;;
36441;SDS011;73131;50.820;16.274;2023-12-14T14:52:20;8.40;;;5.20;;
36441;SDS011;73131;50.820;16.274;2023-12-14T14:55:21;8.40;;;4.75;;
36441;SDS011;73131;50.820;16.274;2023-12-14T14:58:26;11.15;;;5.30;;
36441;SDS011;73131;50.820;16.274;2023-12-14T15:01:27;9.98;;;4.68;;
36441;SDS011;73131;50.820;16.274;2023-12-14T15:04:28;10.27;;;4.63;;
36441;SDS011;73131;50.820;16.274;2023-12-14T15:07:29;9.02;;;5.07;;
36441;SDS011;73131;50.820;16.274;2023-12-14T15:10:30;9.27;;;4.97;;
36441;SDS011;73131;50.820;16.274;2023-12-14T15:13:31;11.23;;;5.03;;
36441;SDS011;73131;50.820;16.274;2023-12-14T15:16:32;10.60;;;4.60;;
36441;SDS011;73131;50.820;16.274;2023-12-14T15:19:36;9.02;;;4.90;;
36441;SDS011;73131;50.820;16.274;2023-12-14T15:22:39;10.27;;;5.18;;
36441;SDS011;73131;50.820;16.274;2023-12-14T15:25:40;7.80;;;4.55;;
36441;SDS011;73131;50.820;16.274;2023-12-14T15:28:48;8.07;;;3.80;;
36441;SDS011;73131;50.820;16.274;2023-12-14T15:31:50;9.05;;;4.45;;
36441;SDS011;73131;50.820;16.274;2023-12-14T15:34:53;7.90;;;4.10;;
36441;SDS011;73131;50.820;16.274;2023-12-14T15:37:56;9.18;;;4.78;;
36441;SDS011;73131;50.820;16.274;2023-12-14T15:40:57;7.88;;;4.65;;
36441;SDS011;73131;50.820;16.274;2023-12-14T15:43:58;9.25;;;4.93;;
36441;SDS011;73131;50.820;16.274;2023-12-14T15:46:59;8.40;;;4.10;;
36441;SDS011;73131;50.820;16.274;2023-12-14T15:50:00;6.90;;;3.58;;
36441;SDS011;73131;50.820;16.274;2023-12-14T15:53:04;7.13;;;3.55;;
36441;SDS011;73131;50.820;16.274;2023-12-14T15:56:08;7.03;;;3.70;;
36441;SDS011;73131;50.820;16.274;2023-12-14T15:59:09;7.00;;;3.20;;
36441;SDS011;73131;50.820;16.274;2023-12-14T16:02:12;4.78;;;2.90;;
36441;SDS011;73131;50.820;16.274;2023-12-14T16:05:15;7.53;;;3.92;;
36441;SDS011;73131;50.820;16.274;2023-12-14T16:08:17;6.45;;;3.20;;
36441;SDS011;73131;50.820;16.274;2023-12-14T16:11:20;5.80;;;3.05;;
36441;SDS011;73131;50.820;16.274;2023-12-14T16:14:21;7.50;;;3.67;;
36441;SDS011;73131;50.820;16.274;2023-12-14T16:17:25;7.70;;;3.30;;
36441;SDS011;73131;50.820;16.274;2023-12-14T16:20:26;8.70;;;3.65;;
36441;SDS011;73131;50.820;16.274;2023-12-14T16:23:27;5.90;;;3.42;;
36441;SDS011;73131;50.820;16.274;2023-12-14T16:26:28;5.70;;;3.05;;
36441;SDS011;73131;50.820;16.274;2023-12-14T16:29:32;7.20;;;3.08;;
36441;SDS011;73131;50.820;16.274;2023-12-14T16:32:37;7.25;;;4.10;;
36441;SDS011;73131;50.820;16.274;2023-12-14T16:35:38;4.43;;;3.00;;
36441;SDS011;73131;50.820;16.274;2023-12-14T16:38:41;5.60;;;3.08;;
36441;SDS011;73131;50.820;16.274;2023-12-14T16:41:44;6.00;;;3.20;;
36441;SDS011;73131;50.820;16.274;2023-12-14T16:44:48;5.88;;;3.50;;
36441;SDS011;73131;50.820;16.274;2023-12-14T16:47:54;7.70;;;3.20;;
36441;SDS011;73131;50.820;16.274;2023-12-14T16:50:57;5.15;;;2.88;;
36441;SDS011;73131;50.820;16.274;2023-12-14T16:54:00;4.97;;;2.80;;
36441;SDS011;73131;50.820;16.274;2023-12-14T16:57:06;6.05;;;2.92;;
36441;SDS011;73131;50.820;16.274;2023-12-14T17:00:07;5.60;;;2.85;;
36441;SDS011;73131;50.820;16.274;2023-12-14T17:03:11;23.40;;;12.57;;
36441;SDS011;73131;50.820;16.274;2023-12-14T17:06:18;9.10;;;3.88;;
36441;SDS011;73131;50.820;16.274;2023-12-14T17:09:20;7.05;;;3.20;;
36441;SDS011;73131;50.820;16.274;2023-12-14T17:12:23;7.78;;;3.90;;
36441;SDS011;73131;50.820;16.274;2023-12-14T17:15:24;8.60;;;3.67;;
36441;SDS011;73131;50.820;16.274;2023-12-14T17:18:25;8.55;;;3.90;;
36441;SDS011;73131;50.820;16.274;2023-12-14T17:21:29;6.93;;;3.83;;
36441;SDS011;73131;50.820;16.274;2023-12-14T17:24:31;6.40;;;4.03;;
36441;SDS011;73131;50.820;16.274;2023-12-14T17:27:33;7.68;;;4.05;;
36441;SDS011;73131;50.820;16.274;2023-12-14T17:30:37;13.10;;;5.40;;
36441;SDS011;73131;50.820;16.274;2023-12-14T17:33:43;7.72;;;4.15;;
36441;SDS011;73131;50.820;16.274;2023-12-14T17:36:45;17.80;;;7.47;;
36441;SDS011;73131;50.820;16.274;2023-12-14T17:39:48;6.72;;;3.35;;
36441;SDS011;73131;50.820;16.274;2023-12-14T17:42:51;7.50;;;3.78;;
36441;SDS011;73131;50.820;16.274;2023-12-14T17:45:53;6.97;;;4.13;;
36441;SDS011;73131;50.820;16.274;2023-12-14T17:48:54;7.40;;;3.25;;
36441;SDS011;73131;50.820;16.274;2023-12-14T17:51:58;6.65;;;3.28;;
36441;SDS011;73131;50.820;16.274;2023-12-14T17:55:04;7.97;;;3.58;;